Time;durP1;ratioP1;P1;durP2;ratioP2;P2;SDS_P1;SDS_P2;PMS_P1;PMS_P2;Temp;Humidity;BMP_temperature;BMP_pressure;BME280_temperature;BME280_humidity;BME280_pressure;Samples;Min_cycle;Max_cycle;Signal;HPM_P1;HPM_P2
2022/03/28 00:00:19;;;;;;;;;;;;;;;10.62;69.52;100928.72;5041312;28;20287;-64
2022/03/28 00:03:03;;;;;;;;;;;;;;;10.62;69.05;100924.41;5040771;28;19971;-64
2022/03/28 00:05:47;;;;;;;;;;;;;;;10.61;69.33;100920.06;5041014;28;19959;-64
2022/03/28 00:08:31;;;;;;;;;;;;;;;10.60;69.35;100925.19;5055718;28;19943;-64
2022/03/28 00:11:16;;;;;;;;;;;;;;;10.59;69.43;100924.31;5055631;28;19932;-64
2022/03/28 00:14:00;;;;;;;;;;;;;;;10.58;69.17;100922.56;5040809;28;20391;-64
2022/03/28 00:16:44;;;;;;;;;;;;;;;10.59;69.36;100921.72;5041008;28;19927;-64
2022/03/28 00:19:27;;;;;;;;;;;;;;;10.59;69.02;100915.69;5040798;28;19928;-64
2022/03/28 00:22:11;;;;;;;;;;;;;;;10.57;69.06;100904.38;5055585;28;19967;-63
2022/03/28 00:24:55;;;;;;;;;;;;;;;10.57;69.11;100901.78;5055090;28;19931;-63
2022/03/28 00:27:39;;;;;;;;;;;;;;;10.56;69.58;100893.13;5055606;28;19928;-65
2022/03/28 00:30:23;;;;;;;;;;;;;;;10.57;69.36;100888.84;5040270;28;20303;-64
2022/03/28 00:33:07;;;;;;;;;;;;;;;10.56;69.25;100885.34;5055196;28;19928;-64
2022/03/28 00:35:51;;;;;;;;;;;;;;;10.56;69.37;100887.94;5054931;28;19928;-64
2022/03/28 00:38:35;;;;;;;;;;;;;;;10.56;69.17;100887.94;5055385;28;19927;-64
2022/03/28 00:41:19;;;;;;;;;;;;;;;10.56;69.13;100885.34;5039964;28;19928;-64
2022/03/28 00:44:05;;;;;;;;;;;;;;;10.55;69.03;100875.81;5040163;28;19928;-64
2022/03/28 00:46:49;;;;;;;;;;;;;;;10.56;69.38;100881.88;5040142;28;19932;-64
2022/03/28 00:49:34;;;;;;;;;;;;;;;10.55;69.09;100882.72;5040000;28;19927;-64
2022/03/28 00:52:18;;;;;;;;;;;;;;;10.54;69.38;100871.47;5055007;28;20058;-64
2022/03/28 00:55:03;;;;;;;;;;;;;;;10.53;69.01;100868.84;5054503;28;19942;-64
2022/03/28 00:57:47;;;;;;;;;;;;;;;10.53;69.38;100879.19;5040179;28;20284;-63
2022/03/28 01:00:31;;;;;;;;;;;;;;;10.51;69.21;100866.19;5054708;28;20011;-64
2022/03/28 01:03:15;;;;;;;;;;;;;;;10.50;69.29;100859.25;5039464;28;20395;-64
2022/03/28 01:05:58;;;;;;;;;;;;;;;10.50;69.33;100857.53;5054752;28;20354;-64
2022/03/28 01:08:42;;;;;;;;;;;;;;;10.48;69.33;100856.59;5054724;28;20019;-64
2022/03/28 01:11:27;;;;;;;;;;;;;;;10.50;69.15;100854.09;5039121;28;19928;-64
2022/03/28 01:14:11;;;;;;;;;;;;;;;10.50;69.35;100851.50;5039363;28;20291;-64
2022/03/28 01:19:58;;;;;;;;;;;;;;;10.47;68.88;100848.81;5054308;28;19969;-63
2022/03/28 01:22:42;;;;;;;;;;;;;;;10.46;68.96;100842.72;5053979;28;19986;-64
2022/03/28 01:25:27;;;;;;;;;;;;;;;10.46;69.33;100834.09;5054206;28;19927;-64
2022/03/28 01:28:10;;;;;;;;;;;;;;;10.47;69.08;100841.03;5039363;28;20018;-64
2022/03/28 01:30:55;;;;;;;;;;;;;;;10.46;69.04;100834.09;5039524;28;19966;-64
2022/03/28 01:33:38;;;;;;;;;;;;;;;10.46;69.31;100831.50;5054351;28;19975;-63
2022/03/28 01:36:28;;;;;;;;;;;;;;;10.46;68.88;100828.91;5053829;28;19928;-64
2022/03/28 01:39:13;;;;;;;;;;;;;;;10.46;69.05;100836.69;5054247;28;19928;-64
2022/03/28 01:41:56;;;;;;;;;;;;;;;10.45;69.02;100824.56;5039330;28;20382;-64
2022/03/28 01:44:41;;;;;;;;;;;;;;;10.44;68.82;100823.66;5054474;28;20012;-64
2022/03/28 01:47:27;;;;;;;;;;;;;;;10.43;68.98;100821.91;5053875;28;20024;-64
2022/03/28 01:50:12;;;;;;;;;;;;;;;10.45;69.28;100829.72;5053948;28;19982;-64
2022/03/28 01:52:56;;;;;;;;;;;;;;;10.45;69.27;100811.59;5053812;28;19928;-63
2022/03/28 01:55:40;;;;;;;;;;;;;;;10.43;69.19;100814.13;5053746;28;20363;-64
2022/03/28 01:58:24;;;;;;;;;;;;;;;10.45;68.82;100821.97;5038326;28;19966;-64
2022/03/28 02:01:08;;;;;;;;;;;;;;;10.42;69.28;100815.00;5053413;28;19927;-64
2022/03/28 02:03:52;;;;;;;;;;;;;;;10.42;69.19;100814.09;5054196;28;19928;-65
2022/03/28 02:06:36;;;;;;;;;;;;;;;10.43;68.99;100814.13;5053751;28;19931;-64
2022/03/28 02:09:19;;;;;;;;;;;;;;;10.42;68.88;100808.91;5053419;28;20020;-65
2022/03/28 02:12:03;;;;;;;;;;;;;;;10.41;69.21;100813.22;5054026;28;19928;-64
2022/03/28 02:14:47;;;;;;;;;;;;;;;10.40;68.96;100811.47;5038267;28;19928;-64
2022/03/28 02:17:32;;;;;;;;;;;;;;;10.41;69.04;100813.22;5053925;28;19928;-64
2022/03/28 02:20:16;;;;;;;;;;;;;;;10.39;69.21;100812.28;5038957;28;19928;-64
2022/03/28 02:23:00;;;;;;;;;;;;;;;10.38;69.34;100802.78;5038500;28;20015;-64
2022/03/28 02:25:44;;;;;;;;;;;;;;;10.39;69.09;100803.63;5053634;28;19970;-63
2022/03/28 02:28:29;;;;;;;;;;;;;;;10.38;68.97;100797.59;5038535;28;20291;-64
2022/03/28 02:31:13;;;;;;;;;;;;;;;10.39;68.96;100803.63;5053137;28;19928;-64
2022/03/28 02:33:56;;;;;;;;;;;;;;;10.39;69.19;100795.84;5038683;28;19928;-64
2022/03/28 02:36:41;;;;;;;;;;;;;;;10.38;68.89;100792.41;5053449;28;20054;-64
2022/03/28 02:39:25;;;;;;;;;;;;;;;10.38;68.93;100792.41;5053081;28;20442;-65
2022/03/28 02:42:11;;;;;;;;;;;;;;;10.38;69.00;100788.88;5053875;28;19966;-63
2022/03/28 02:44:56;;;;;;;;;;;;;;;10.37;69.08;100793.19;5053348;28;19932;-64
2022/03/28 02:47:41;;;;;;;;;;;;;;;10.38;68.90;100783.69;5053076;28;19957;-64
2022/03/28 02:50:29;;;;;;;;;;;;;;;10.38;68.97;100788.88;5038125;28;20157;-64
2022/03/28 02:53:13;;;;;;;;;;;;;;;10.36;69.07;100776.75;5038397;28;20350;-64
2022/03/28 02:55:58;;;;;;;;;;;;;;;10.36;69.18;100768.13;5038287;28;20323;-64
2022/03/28 02:58:41;;;;;;;;;;;;;;;10.35;69.37;100764.63;5038292;28;20453;-64
2022/03/28 03:01:25;;;;;;;;;;;;;;;10.36;69.35;100768.97;5038342;28;19932;-64
2022/03/28 03:04:09;;;;;;;;;;;;;;;10.35;69.13;100754.28;5038645;28;19927;-64
2022/03/28 03:06:53;;;;;;;;;;;;;;;10.35;69.36;100758.59;5053531;28;19992;-64
2022/03/28 03:09:37;;;;;;;;;;;;;;;10.35;69.24;100763.78;5053354;28;19967;-64
2022/03/28 03:12:21;;;;;;;;;;;;;;;10.33;69.35;100749.88;5057059;28;19927;-64
2022/03/28 03:15:05;;;;;;;;;;;;;;;10.33;69.37;100750.78;5056693;28;19975;-64
2022/03/28 03:17:49;;;;;;;;;;;;;;;10.33;69.09;100755.97;5041585;28;19927;-64
2022/03/28 03:20:33;;;;;;;;;;;;;;;10.32;69.32;100748.13;5042218;28;19927;-64
2022/03/28 03:23:16;;;;;;;;;;;;;;;10.31;69.07;100747.28;5056826;28;19967;-63
2022/03/28 03:26:00;;;;;;;;;;;;;;;10.31;69.15;100747.28;5056435;28;19928;-64
2022/03/28 03:28:44;;;;;;;;;;;;;;;10.30;69.31;100747.22;5041362;28;20288;-64
2022/03/28 03:31:28;;;;;;;;;;;;;;;10.30;69.33;100748.09;5056453;28;19974;-64
2022/03/28 03:34:12;;;;;;;;;;;;;;;10.30;69.26;100745.50;5041514;28;20084;-64
2022/03/28 03:36:56;;;;;;;;;;;;;;;10.29;69.35;100742.84;5041181;28;19928;-64
2022/03/28 03:39:40;;;;;;;;;;;;;;;10.28;69.16;100742.00;5056532;28;19928;-64
2022/03/28 03:42:24;;;;;;;;;;;;;;;10.28;69.13;100741.09;5056640;28;19928;-64
2022/03/28 03:45:09;;;;;;;;;;;;;;;10.27;69.00;100740.22;5056230;28;20403;-64
2022/03/28 03:47:53;;;;;;;;;;;;;;;10.26;69.34;100737.63;5055992;28;19945;-64
2022/03/28 03:50:37;;;;;;;;;;;;;;;10.27;69.04;100739.38;5040653;28;19967;-64
2022/03/28 03:53:20;;;;;;;;;;;;;;;10.26;69.11;100740.22;5041232;28;19928;-64
2022/03/28 03:56:04;;;;;;;;;;;;;;;10.25;69.42;100735.84;5041241;28;19982;-64
2022/03/28 03:58:48;;;;;;;;;;;;;;;10.23;69.34;100743.56;5056080;28;20482;-64
2022/03/28 04:01:32;;;;;;;;;;;;;;;10.21;69.39;100730.59;5055832;28;19927;-64
2022/03/28 04:04:16;;;;;;;;;;;;;;;10.21;69.00;100733.16;5040924;28;19943;-64
2022/03/28 04:07:00;;;;;;;;;;;;;;;10.21;69.35;100729.69;5056211;28;19923;-64
2022/03/28 04:09:44;;;;;;;;;;;;;;;10.20;69.29;100730.53;5055702;28;20040;-64
2022/03/28 04:12:28;;;;;;;;;;;;;;;10.19;69.37;100729.66;5040950;28;19927;-64
2022/03/28 04:15:12;;;;;;;;;;;;;;;10.20;69.18;100725.34;5040747;28;20023;-63
2022/03/28 04:17:55;;;;;;;;;;;;;;;10.19;69.35;100726.19;5055257;28;20012;-64
2022/03/28 04:20:40;;;;;;;;;;;;;;;10.19;69.30;100716.69;5040569;28;20389;-64
2022/03/28 04:23:24;;;;;;;;;;;;;;;10.18;69.00;100725.31;5054680;28;19943;-64
2022/03/28 04:26:08;;;;;;;;;;;;;;;10.17;69.26;100723.53;5040464;28;19928;-64
2022/03/28 04:28:52;;;;;;;;;;;;;;;10.16;69.25;100711.44;5055602;28;20280;-64
2022/03/28 04:31:40;;;;;;;;;;;;;;;10.15;68.96;100714.00;5055255;28;20414;-64
2022/03/28 04:34:23;;;;;;;;;;;;;;;10.14;69.28;100712.22;5055295;28;20410;-64
2022/03/28 04:37:07;;;;;;;;;;;;;;;10.14;69.39;100718.28;5055310;28;20457;-64
2022/03/28 04:39:51;;;;;;;;;;;;;;;10.13;69.34;100721.69;5055105;28;20406;-64
2022/03/28 04:42:35;;;;;;;;;;;;;;;10.14;69.24;100720.00;5054898;28;19932;-64
2022/03/28 04:45:19;;;;;;;;;;;;;;;10.13;69.17;100721.69;5040412;28;19928;-64
2022/03/28 04:48:03;;;;;;;;;;;;;;;10.12;68.98;100709.56;5054698;28;19927;-64
2022/03/28 04:50:47;;;;;;;;;;;;;;;10.12;69.07;100714.75;5055069;28;20421;-64
2022/03/28 04:53:31;;;;;;;;;;;;;;;10.10;69.23;100715.56;5054905;28;19979;-64
2022/03/28 04:56:15;;;;;;;;;;;;;;;10.10;69.16;100710.38;5055349;28;20338;-65
2022/03/28 04:58:59;;;;;;;;;;;;;;;10.10;69.23;100707.78;5039821;28;20008;-64
2022/03/28 05:01:43;;;;;;;;;;;;;;;10.08;68.97;100702.59;5054629;28;19928;-64
2022/03/28 05:04:27;;;;;;;;;;;;;;;10.09;69.25;100713.81;5054328;28;19928;-65
2022/03/28 05:07:11;;;;;;;;;;;;;;;10.09;69.33;100714.69;5054945;28;19944;-64
2022/03/28 05:09:55;;;;;;;;;;;;;;;10.08;69.14;100712.03;5039310;28;19970;-64
2022/03/28 05:12:39;;;;;;;;;;;;;;;10.07;69.28;100706.00;5055033;28;19927;-64
2022/03/28 05:15:23;;;;;;;;;;;;;;;10.06;69.16;100704.25;5054710;28;19990;-63
2022/03/28 05:18:07;;;;;;;;;;;;;;;10.06;69.12;100699.94;5054491;28;20292;-64
2022/03/28 05:20:51;;;;;;;;;;;;;;;10.06;69.28;100702.50;5040061;28;19928;-63
2022/03/28 05:23:35;;;;;;;;;;;;;;;10.04;69.16;100695.53;5053998;28;19927;-64
2022/03/28 05:26:19;;;;;;;;;;;;;;;10.05;69.11;100711.13;5054705;28;19958;-64
2022/03/28 05:29:03;;;;;;;;;;;;;;;10.05;69.16;100708.53;5039505;28;19985;-64
2022/03/28 05:31:47;;;;;;;;;;;;;;;10.04;68.98;100709.34;5054421;28;20332;-64
2022/03/28 05:34:31;;;;;;;;;;;;;;;10.04;69.23;100718.84;5039080;28;19982;-64
2022/03/28 05:37:16;;;;;;;;;;;;;;;10.03;68.93;100720.59;5053710;28;19979;-64
2022/03/28 05:40:01;;;;;;;;;;;;;;;10.03;69.24;100711.91;5039478;28;19928;-64
2022/03/28 05:42:45;;;;;;;;;;;;;;;10.01;69.12;100719.66;5039407;28;19932;-64
2022/03/28 05:45:29;;;;;;;;;;;;;;;10.01;69.13;100716.16;5054099;28;20335;-64
2022/03/28 05:48:13;;;;;;;;;;;;;;;9.99;68.89;100715.25;5039572;28;19967;-64
2022/03/28 05:50:57;;;;;;;;;;;;;;;9.99;69.29;100720.41;5054071;28;20283;-64
2022/03/28 05:53:41;;;;;;;;;;;;;;;9.98;68.89;100716.97;5038923;28;20030;-63
2022/03/28 05:56:25;;;;;;;;;;;;;;;9.97;69.27;100715.22;5053980;28;19973;-64
2022/03/28 05:59:09;;;;;;;;;;;;;;;9.97;68.99;100711.72;5053894;28;19927;-64
2022/03/28 06:01:53;;;;;;;;;;;;;;;9.96;69.15;100710.88;5053904;28;19943;-64
2022/03/28 06:04:36;;;;;;;;;;;;;;;9.96;69.21;100726.41;5053379;28;19974;-64
2022/03/28 06:07:20;;;;;;;;;;;;;;;9.95;69.00;100716.00;5053676;28;19928;-64
2022/03/28 06:10:05;;;;;;;;;;;;;;;9.95;69.10;100710.84;5038840;28;19927;-64
2022/03/28 06:12:49;;;;;;;;;;;;;;;9.94;69.28;100704.75;5038968;28;20391;-64
2022/03/28 06:15:36;;;;;;;;;;;;;;;9.93;69.31;100709.91;5053863;28;19928;-64
2022/03/28 06:18:20;;;;;;;;;;;;;;;9.93;69.22;100707.31;5053385;28;19929;-64
2022/03/28 06:21:04;;;;;;;;;;;;;;;9.92;68.87;100706.41;5053215;28;20011;-64
2022/03/28 06:23:48;;;;;;;;;;;;;;;9.93;69.07;100709.91;5038498;28;19928;-64
2022/03/28 06:26:32;;;;;;;;;;;;;;;9.93;68.86;100713.34;5038669;28;19978;-64
2022/03/28 06:29:16;;;;;;;;;;;;;;;9.94;69.06;100717.72;5038840;28;19931;-64
2022/03/28 06:32:00;;;;;;;;;;;;;;;9.92;69.08;100706.41;5053578;28;19928;-64
2022/03/28 06:34:44;;;;;;;;;;;;;;;9.92;69.19;100701.25;5053438;28;19928;-64
2022/03/28 06:37:28;;;;;;;;;;;;;;;9.92;69.24;100706.41;5053498;28;19928;-64
2022/03/28 06:40:12;;;;;;;;;;;;;;;9.93;69.21;100709.91;5053361;28;19944;-64
2022/03/28 06:42:56;;;;;;;;;;;;;;;9.92;69.21;100701.25;5038560;28;19931;-64
2022/03/28 06:45:40;;;;;;;;;;;;;;;9.92;69.21;100711.59;5039967;28;19928;-64
2022/03/28 06:48:24;;;;;;;;;;;;;;;9.93;68.91;100715.09;5056980;28;19927;-64
2022/03/28 06:51:08;;;;;;;;;;;;;;;9.93;69.37;100712.50;5042525;28;19975;-63
2022/03/28 06:53:52;;;;;;;;;;;;;;;9.93;69.08;100705.59;5042621;28;19971;-64
2022/03/28 06:56:36;;;;;;;;;;;;;;;9.93;69.11;100704.72;5042461;28;19931;-64
2022/03/28 06:59:22;;;;;;;;;;;;;;;9.93;69.24;100702.13;5042371;28;19928;-64
2022/03/28 07:02:06;;;;;;;;;;;;;;;9.90;69.05;100697.72;5057085;28;20267;-64
2022/03/28 07:04:50;;;;;;;;;;;;;;;9.90;69.26;100696.03;5057037;28;20010;-64
2022/03/28 07:07:53;;;;;;;;;;;;;;;9.89;69.26;100696.88;5057085;28;19974;-64
2022/03/28 07:10:37;;;;;;;;;;;;;;;9.90;69.32;100692.53;5041580;28;19967;-64
2022/03/28 07:13:22;;;;;;;;;;;;;;;9.89;69.45;100694.28;5041634;28;19929;-64
2022/03/28 07:16:06;;;;;;;;;;;;;;;9.90;69.45;100690.84;5041956;28;19932;-64
2022/03/28 07:18:50;;;;;;;;;;;;;;;9.90;69.61;100696.03;5041796;28;20054;-64
2022/03/28 07:21:34;;;;;;;;;;;;;;;9.90;69.66;100687.38;5056401;28;19928;-64
2022/03/28 07:24:18;;;;;;;;;;;;;;;9.93;69.88;100678.84;5056564;28;19927;-63
2022/03/28 07:27:02;;;;;;;;;;;;;;;9.92;69.92;100675.34;5041643;28;20387;-64
2022/03/28 07:29:45;;;;;;;;;;;;;;;9.94;69.53;100678.88;5056520;28;19931;-64
2022/03/28 07:32:29;;;;;;;;;;;;;;;9.93;70.13;100679.69;5056129;28;19928;-64
2022/03/28 07:35:14;;;;;;;;;;;;;;;9.94;70.16;100683.19;5056406;28;19928;-64
2022/03/28 07:37:58;;;;;;;;;;;;;;;9.94;70.06;100676.28;5056383;28;19928;-64
2022/03/28 07:40:43;;;;;;;;;;;;;;;9.95;70.15;100680.63;5041123;28;19927;-64
2022/03/28 07:43:27;;;;;;;;;;;;;;;9.96;70.21;100676.34;5056378;28;20486;-64
2022/03/28 07:46:13;;;;;;;;;;;;;;;9.95;70.01;100672.00;5056068;28;20469;-63
2022/03/28 07:48:57;;;;;;;;;;;;;;;9.96;70.13;100676.34;5041355;28;19928;-64
2022/03/28 07:51:40;;;;;;;;;;;;;;;9.98;70.16;100679.81;5041523;28;19978;-64
2022/03/28 07:54:24;;;;;;;;;;;;;;;9.95;70.25;100672.00;5055961;28;19947;-64
2022/03/28 07:57:08;;;;;;;;;;;;;;;9.96;70.34;100666.84;5056362;28;19927;-63
2022/03/28 07:59:52;;;;;;;;;;;;;;;9.96;70.40;100661.66;5055969;28;19975;-63
2022/03/28 08:02:38;;;;;;;;;;;;;;;9.96;70.28;100661.66;5055739;28;20322;-64
2022/03/28 08:05:22;;;;;;;;;;;;;;;9.96;70.19;100661.66;5040846;28;19966;-64
2022/03/28 08:08:06;;;;;;;;;;;;;;;9.98;70.27;100661.69;5055572;28;19928;-64
2022/03/28 08:10:50;;;;;;;;;;;;;;;9.98;69.85;100660.00;5040490;28;20021;-64
2022/03/28 08:13:34;;;;;;;;;;;;;;;9.98;70.28;100653.94;5056128;28;19928;-64
2022/03/28 08:16:18;;;;;;;;;;;;;;;9.98;70.27;100649.63;5040936;28;19982;-64
2022/03/28 08:19:03;;;;;;;;;;;;;;;9.99;70.24;100651.41;5055587;28;20455;-64
2022/03/28 08:21:47;;;;;;;;;;;;;;;10.00;69.87;100652.25;5055766;28;19928;-64
2022/03/28 08:24:31;;;;;;;;;;;;;;;9.99;70.27;100646.22;5055240;28;19928;-64
2022/03/28 08:27:15;;;;;;;;;;;;;;;10.00;69.98;100640.22;5040279;28;19928;-64
2022/03/28 08:29:59;;;;;;;;;;;;;;;10.01;70.12;100639.38;5055301;28;20016;-64
2022/03/28 08:32:45;;;;;;;;;;;;;;;10.02;70.01;100638.53;5040206;28;20343;-64
2022/03/28 08:35:30;;;;;;;;;;;;;;;10.02;70.44;100635.94;5040880;28;19928;-64
2022/03/28 08:38:13;;;;;;;;;;;;;;;10.05;70.20;100635.16;5040629;28;19928;-63
2022/03/28 08:40:57;;;;;;;;;;;;;;;10.06;70.10;100637.78;5054844;28;19928;-64
2022/03/28 08:43:41;;;;;;;;;;;;;;;10.09;70.21;100629.22;5054889;28;19927;-64
2022/03/28 08:46:27;;;;;;;;;;;;;;;10.10;70.18;100630.97;5040006;28;20541;-63
2022/03/28 08:49:12;;;;;;;;;;;;;;;10.12;70.10;100628.44;5039966;28;19927;-63
2022/03/28 08:51:56;;;;;;;;;;;;;;;10.13;70.11;100631.03;5039784;28;19943;-63
2022/03/28 08:54:40;;;;;;;;;;;;;;;10.15;70.15;100616.41;5039970;28;19950;-64
2022/03/28 08:57:24;;;;;;;;;;;;;;;10.17;70.06;100616.47;5054613;28;20422;-64
2022/03/28 09:00:09;;;;;;;;;;;;;;;10.19;70.16;100620.00;5054485;28;20406;-64
2022/03/28 09:02:57;;;;;;;;;;;;;;;10.21;70.02;100613.13;5054883;28;19982;-64
2022/03/28 09:05:47;;;;;;;;;;;;;;;10.23;69.85;100614.03;5039654;28;20292;-64
2022/03/28 09:08:36;;;;;;;;;;;;;;;10.26;70.07;100616.72;5054318;28;19927;-63
2022/03/28 09:11:21;;;;;;;;;;;;;;;10.29;69.84;100614.22;5039437;28;19943;-63
2022/03/28 09:14:05;;;;;;;;;;;;;;;10.31;69.82;100607.34;5054673;28;19927;-63
2022/03/28 09:17:01;;;;;;;;;;;;;;;10.34;70.11;100603.97;5039062;28;19927;-63
2022/03/28 09:19:46;;;;;;;;;;;;;;;10.37;70.05;100604.03;5054385;28;19927;-64
2022/03/28 09:22:32;;;;;;;;;;;;;;;10.39;70.15;100596.34;5039496;28;20479;-64
2022/03/28 09:25:18;;;;;;;;;;;;;;;10.41;69.71;100595.56;5053986;28;20410;-64
2022/03/28 09:28:02;;;;;;;;;;;;;;;10.42;69.79;100593.81;5039674;28;19928;-64
2022/03/28 09:30:46;;;;;;;;;;;;;;;10.45;69.64;100599.09;5039419;28;19974;-64
2022/03/28 09:33:30;;;;;;;;;;;;;;;10.46;69.98;100590.47;5054117;28;19927;-63
2022/03/28 09:36:13;;;;;;;;;;;;;;;10.48;69.76;100591.41;5038906;28;19927;-63
2022/03/28 09:38:57;;;;;;;;;;;;;;;10.49;69.79;100595.75;5039062;28;19928;-64
2022/03/28 09:41:41;;;;;;;;;;;;;;;10.51;69.81;100583.69;5053726;28;20015;-64
2022/03/28 09:44:42;;;;;;;;;;;;;;;10.53;69.64;100587.19;5039089;28;19942;-63
2022/03/28 09:47:26;;;;;;;;;;;;;;;10.55;69.56;100587.25;5054408;28;19928;-63
2022/03/28 09:50:11;;;;;;;;;;;;;;;10.57;69.63;100581.25;5053943;28;19927;-63
2022/03/28 09:52:54;;;;;;;;;;;;;;;10.60;69.84;100576.16;5053764;28;19988;-64
2022/03/28 09:55:52;;;;;;;;;;;;;;;10.61;69.55;100575.31;5039064;28;20299;-63
2022/03/28 09:58:36;;;;;;;;;;;;;;;10.62;69.93;100569.28;5054277;28;19931;-63
2022/03/28 10:01:25;;;;;;;;;;;;;;;10.68;69.46;100559.88;5053665;28;19967;-63
2022/03/28 10:04:11;;;;;;;;;;;;;;;10.73;69.64;100566.97;5053877;28;19928;-64
2022/03/28 10:06:56;;;;;;;;;;;;;;;10.78;69.50;100570.53;5038565;28;20419;-64
2022/03/28 10:09:41;;;;;;;;;;;;;;;10.82;69.74;100561.13;5038750;28;20299;-63
2022/03/28 10:12:25;;;;;;;;;;;;;;;10.84;69.84;100562.00;5039211;28;19929;-63
2022/03/28 10:15:09;;;;;;;;;;;;;;;10.86;69.63;100560.31;5053628;28;19927;-63
2022/03/28 10:17:53;;;;;;;;;;;;;;;10.86;69.50;100555.13;5054126;28;19928;-63
2022/03/28 10:20:41;;;;;;;;;;;;;;;10.87;69.46;100549.13;5039835;28;20011;-63
2022/03/28 10:23:42;;;;;;;;;;;;;;;10.89;69.51;100552.63;5043086;28;19971;-63
2022/03/28 10:26:36;;;;;;;;;;;;;;;10.90;69.47;100537.97;5057351;28;19932;-63
2022/03/28 10:29:22;;;;;;;;;;;;;;;10.90;69.29;100536.22;5042547;28;19966;-64
2022/03/28 10:32:14;;;;;;;;;;;;;;;10.90;69.46;100533.63;5042890;28;20412;-63
2022/03/28 10:35:04;;;;;;;;;;;;;;;10.90;69.29;100531.03;5042505;28;19966;-63
2022/03/28 10:37:49;;;;;;;;;;;;;;;10.89;69.40;100529.28;5057509;28;19928;-64
2022/03/28 10:40:40;;;;;;;;;;;;;;;10.91;69.31;100531.91;5042386;28;19966;-64
2022/03/28 10:43:25;;;;;;;;;;;;;;;10.94;69.59;100526.78;5042510;28;19994;-63
2022/03/28 10:46:10;;;;;;;;;;;;;;;10.98;69.52;100528.63;5057095;28;19928;-63
2022/03/28 10:48:58;;;;;;;;;;;;;;;11.01;69.78;100527.78;5042026;28;19943;-63
2022/03/28 10:51:47;;;;;;;;;;;;;;;11.01;69.70;100525.19;5057641;28;19928;-64
2022/03/28 10:54:38;;;;;;;;;;;;;;;11.00;69.46;100520.84;5057228;28;19928;-63
2022/03/28 10:57:26;;;;;;;;;;;;;;;11.01;69.37;100526.09;5042434;28;19927;-64
2022/03/28 11:00:12;;;;;;;;;;;;;;;11.02;69.28;100524.38;5056906;28;19951;-64
2022/03/28 11:03:00;;;;;;;;;;;;;;;11.01;69.37;100520.91;5041940;28;19998;-63
2022/03/28 11:05:54;;;;;;;;;;;;;;;11.02;69.77;100521.75;5057379;28;19967;-64
2022/03/28 11:08:39;;;;;;;;;;;;;;;11.01;69.75;100518.31;5042011;28;19928;-64
2022/03/28 11:11:32;;;;;;;;;;;;;;;11.04;69.82;100520.97;5041962;28;20004;-63
2022/03/28 11:14:16;;;;;;;;;;;;;;;11.06;69.34;100521.84;5057073;28;19928;-64
2022/03/28 11:17:11;;;;;;;;;;;;;;;11.07;69.17;100513.25;5056432;28;19928;-64
2022/03/28 11:20:01;;;;;;;;;;;;;;;11.08;69.76;100512.41;5041611;28;19990;-63
2022/03/28 11:22:45;;;;;;;;;;;;;;;11.10;69.38;100508.13;5041686;28;19966;-64
2022/03/28 11:25:48;;;;;;;;;;;;;;;11.11;69.46;100507.28;5042005;28;19971;-64
2022/03/28 11:28:34;;;;;;;;;;;;;;;11.13;69.73;100507.34;5041848;28;19929;-63
2022/03/28 11:31:18;;;;;;;;;;;;;;;11.14;69.67;100503.88;5056046;28;20394;-63
2022/03/28 11:34:07;;;;;;;;;;;;;;;11.15;69.73;100505.63;5056336;28;19970;-63
2022/03/28 11:36:51;;;;;;;;;;;;;;;11.15;69.40;100500.44;5041776;28;19943;-63
2022/03/28 11:39:55;;;;;;;;;;;;;;;11.15;69.35;100494.38;5056551;28;19928;-63
2022/03/28 11:42:44;;;;;;;;;;;;;;;11.16;69.32;100489.22;5041608;28;20426;-63
2022/03/28 11:45:29;;;;;;;;;;;;;;;11.17;69.69;100490.09;5041036;28;20398;-63
2022/03/28 11:48:16;;;;;;;;;;;;;;;11.17;69.37;100488.38;5056551;28;19944;-63
2022/03/28 11:51:12;;;;;;;;;;;;;;;11.18;69.59;100490.13;5041277;28;19928;-63
2022/03/28 11:54:00;;;;;;;;;;;;;;;11.19;69.41;100483.22;5056320;28;19974;-64
2022/03/28 11:59:51;;;;;;;;;;;;;;;11.21;69.68;100477.22;5056400;28;19975;-64
2022/03/28 12:02:45;;;;;;;;;;;;;;;11.20;69.61;100472.00;5055818;28;19952;-64
2022/03/28 12:05:40;;;;;;;;;;;;;;;11.20;69.32;100478.06;5041002;28;19971;-64
2022/03/28 12:08:24;;;;;;;;;;;;;;;11.22;69.24;100471.19;5040459;28;19931;-64
2022/03/28 12:11:12;;;;;;;;;;;;;;;11.21;69.25;100466.84;5040615;28;19928;-63
2022/03/28 12:13:56;;;;;;;;;;;;;;;11.22;69.48;100457.31;5040740;28;19977;-63
2022/03/28 12:16:44;;;;;;;;;;;;;;;11.22;69.21;100452.13;5055285;28;19981;-63
2022/03/28 12:19:29;;;;;;;;;;;;;;;11.22;69.64;100454.72;5040847;28;19928;-63
2022/03/28 12:22:18;;;;;;;;;;;;;;;11.22;69.13;100439.16;5040979;28;19928;-63
2022/03/28 12:25:02;;;;;;;;;;;;;;;11.22;69.29;100444.34;5040911;28;19975;-63
2022/03/28 12:27:50;;;;;;;;;;;;;;;11.24;69.52;100443.56;5040381;28;19931;-63
2022/03/28 12:30:35;;;;;;;;;;;;;;;11.25;69.26;100434.94;5055566;28;19928;-64
2022/03/28 12:33:21;;;;;;;;;;;;;;;11.27;69.57;100430.66;5055862;28;19932;-63
2022/03/28 12:36:05;;;;;;;;;;;;;;;11.31;69.25;100428.97;5040510;28;19928;-63
2022/03/28 12:38:59;;;;;;;;;;;;;;;11.33;69.14;100427.28;5055652;28;19943;-63
2022/03/28 12:41:46;;;;;;;;;;;;;;;11.32;69.20;100425.53;5040065;28;19967;-63
2022/03/28 12:44:33;;;;;;;;;;;;;;;11.32;69.41;100417.75;5039425;28;19951;-63
2022/03/28 12:47:17;;;;;;;;;;;;;;;11.32;69.16;100419.47;5055083;28;19927;-63
2022/03/28 12:50:01;;;;;;;;;;;;;;;11.33;69.33;100411.72;5055231;28;19928;-65
2022/03/28 12:52:45;;;;;;;;;;;;;;;11.35;69.36;100410.03;5054803;28;19928;-63
2022/03/28 12:55:29;;;;;;;;;;;;;;;11.37;69.07;100403.13;5055016;28;20406;-64
2022/03/28 12:58:13;;;;;;;;;;;;;;;11.38;68.99;100394.50;5054617;28;19991;-64
2022/03/28 13:01:02;;;;;;;;;;;;;;;11.39;69.29;100395.41;5054722;28;20307;-63
2022/03/28 13:03:46;;;;;;;;;;;;;;;11.40;68.88;100397.16;5054976;28;19932;-63
2022/03/28 13:06:34;;;;;;;;;;;;;;;11.41;69.08;100388.50;5040095;28;20292;-64
2022/03/28 13:09:18;;;;;;;;;;;;;;;11.41;68.99;100384.19;5054573;28;19932;-64
2022/03/28 13:12:06;;;;;;;;;;;;;;;11.41;69.22;100376.41;5039262;28;19929;-63
2022/03/28 13:14:52;;;;;;;;;;;;;;;11.42;68.77;100367.75;5039926;28;20284;-64
2022/03/28 13:17:38;;;;;;;;;;;;;;;11.43;68.91;100361.72;5055025;28;19928;-63
2022/03/28 13:20:22;;;;;;;;;;;;;;;11.44;69.27;100362.63;5054055;28;19947;-64
2022/03/28 13:23:26;;;;;;;;;;;;;;;11.45;68.84;100355.69;5039890;28;19981;-63
2022/03/28 13:26:14;;;;;;;;;;;;;;;11.46;69.12;100363.50;5039587;28;20348;-63
2022/03/28 13:29:13;;;;;;;;;;;;;;;11.46;69.03;100357.44;5039628;28;19927;-63
2022/03/28 13:31:57;;;;;;;;;;;;;;;11.47;68.70;100351.41;5038790;28;19932;-64
2022/03/28 13:34:44;;;;;;;;;;;;;;;11.47;69.13;100344.47;5053918;28;20198;-64
2022/03/28 13:37:28;;;;;;;;;;;;;;;11.46;68.85;100342.72;5054181;28;20308;-64
2022/03/28 13:40:12;;;;;;;;;;;;;;;11.47;68.88;100341.88;5054049;28;19928;-64
2022/03/28 13:42:57;;;;;;;;;;;;;;;11.49;69.10;100334.16;5038956;28;20046;-64
2022/03/28 13:45:41;;;;;;;;;;;;;;;11.50;69.03;100338.50;5039581;28;19927;-64
2022/03/28 13:48:25;;;;;;;;;;;;;;;11.51;68.82;100329.84;5038920;28;20459;-64
2022/03/28 13:51:09;;;;;;;;;;;;;;;11.52;69.03;100318.63;5053991;28;19927;-64
2022/03/28 13:53:54;;;;;;;;;;;;;;;11.50;68.59;100313.38;5053580;28;20016;-64
2022/03/28 13:56:38;;;;;;;;;;;;;;;11.51;68.83;100309.94;5053891;28;19928;-64
2022/03/28 13:59:21;;;;;;;;;;;;;;;11.52;68.43;100313.44;5053852;28;19928;-63
2022/03/28 14:02:06;;;;;;;;;;;;;;;11.51;69.00;100309.94;5053552;28;19928;-63
2022/03/28 14:04:51;;;;;;;;;;;;;;;11.52;68.56;100303.06;5039202;28;19928;-63
2022/03/28 14:07:35;;;;;;;;;;;;;;;11.53;68.84;100303.06;5039324;28;20366;-64
2022/03/28 14:10:21;;;;;;;;;;;;;;;11.51;68.98;100293.53;5053868;28;19973;-64
2022/03/28 14:13:05;;;;;;;;;;;;;;;11.51;68.41;100285.72;5054006;28;19975;-64
2022/03/28 14:15:48;;;;;;;;;;;;;;;11.50;68.47;100292.63;5038522;28;19927;-64